sensor_id;sensor_type;location;lat;lon;timestamp;P1;durP1;ratioP1;P2;durP2;ratioP2
73382;SDS011;61600;48.126;11.542;2023-12-07T00:00:09;16.55;;;6.82;;
73382;SDS011;61600;48.126;11.542;2023-12-07T00:02:36;13.93;;;6.78;;
73382;SDS011;61600;48.126;11.542;2023-12-07T00:05:02;15.43;;;7.80;;
73382;SDS011;61600;48.126;11.542;2023-12-07T00:07:27;13.20;;;6.75;;
73382;SDS011;61600;48.126;11.542;2023-12-07T00:09:53;13.32;;;6.07;;
73382;SDS011;61600;48.126;11.542;2023-12-07T00:12:18;12.75;;;7.00;;
73382;SDS011;61600;48.126;11.542;2023-12-07T00:14:44;16.65;;;7.47;;
73382;SDS011;61600;48.126;11.542;2023-12-07T00:17:10;14.27;;;7.05;;
73382;SDS011;61600;48.126;11.542;2023-12-07T00:19:35;13.55;;;7.03;;
73382;SDS011;61600;48.126;11.542;2023-12-07T00:22:01;19.60;;;7.90;;
73382;SDS011;61600;48.126;11.542;2023-12-07T00:24:27;14.57;;;7.10;;
73382;SDS011;61600;48.126;11.542;2023-12-07T00:26:53;16.52;;;7.78;;
73382;SDS011;61600;48.126;11.542;2023-12-07T00:29:19;15.60;;;7.45;;
73382;SDS011;61600;48.126;11.542;2023-12-07T00:31:44;12.20;;;6.55;;
73382;SDS011;61600;48.126;11.542;2023-12-07T00:34:10;18.55;;;9.18;;
73382;SDS011;61600;48.126;11.542;2023-12-07T00:36:36;14.35;;;7.63;;
73382;SDS011;61600;48.126;11.542;2023-12-07T00:39:01;14.70;;;7.57;;
73382;SDS011;61600;48.126;11.542;2023-12-07T00:41:29;17.15;;;7.57;;
73382;SDS011;61600;48.126;11.542;2023-12-07T00:43:54;18.55;;;7.88;;
73382;SDS011;61600;48.126;11.542;2023-12-07T00:46:20;18.38;;;8.25;;
73382;SDS011;61600;48.126;11.542;2023-12-07T00:48:46;18.73;;;8.55;;
73382;SDS011;61600;48.126;11.542;2023-12-07T00:51:11;14.93;;;6.97;;
73382;SDS011;61600;48.126;11.542;2023-12-07T00:53:37;17.08;;;7.07;;
73382;SDS011;61600;48.126;11.542;2023-12-07T00:56:03;17.13;;;6.95;;
73382;SDS011;61600;48.126;11.542;2023-12-07T00:58:29;17.63;;;8.55;;
73382;SDS011;61600;48.126;11.542;2023-12-07T01:00:55;17.55;;;8.00;;
73382;SDS011;61600;48.126;11.542;2023-12-07T01:03:20;13.98;;;7.05;;
73382;SDS011;61600;48.126;11.542;2023-12-07T01:05:46;14.75;;;7.25;;
73382;SDS011;61600;48.126;11.542;2023-12-07T01:08:11;16.27;;;7.85;;
73382;SDS011;61600;48.126;11.542;2023-12-07T01:10:37;15.05;;;7.32;;
73382;SDS011;61600;48.126;11.542;2023-12-07T01:13:02;17.52;;;7.80;;
73382;SDS011;61600;48.126;11.542;2023-12-07T01:15:28;15.82;;;6.75;;
73382;SDS011;61600;48.126;11.542;2023-12-07T01:17:53;16.88;;;8.13;;
73382;SDS011;61600;48.126;11.542;2023-12-07T01:20:19;15.73;;;7.07;;
73382;SDS011;61600;48.126;11.542;2023-12-07T01:22:45;18.70;;;7.57;;
73382;SDS011;61600;48.126;11.542;2023-12-07T01:25:11;17.75;;;8.60;;
73382;SDS011;61600;48.126;11.542;2023-12-07T01:27:37;16.23;;;7.82;;
73382;SDS011;61600;48.126;11.542;2023-12-07T01:30:03;21.48;;;8.55;;
73382;SDS011;61600;48.126;11.542;2023-12-07T01:32:30;17.98;;;8.27;;
73382;SDS011;61600;48.126;11.542;2023-12-07T01:34:55;16.10;;;7.88;;
73382;SDS011;61600;48.126;11.542;2023-12-07T01:37:21;15.88;;;7.90;;
73382;SDS011;61600;48.126;11.542;2023-12-07T01:39:47;15.50;;;7.80;;
73382;SDS011;61600;48.126;11.542;2023-12-07T01:42:12;17.60;;;7.80;;
73382;SDS011;61600;48.126;11.542;2023-12-07T01:44:38;18.42;;;7.82;;
73382;SDS011;61600;48.126;11.542;2023-12-07T01:47:04;20.75;;;8.68;;
73382;SDS011;61600;48.126;11.542;2023-12-07T01:49:31;17.67;;;9.10;;
73382;SDS011;61600;48.126;11.542;2023-12-07T01:51:57;19.35;;;8.32;;
73382;SDS011;61600;48.126;11.542;2023-12-07T01:54:23;19.13;;;8.85;;
73382;SDS011;61600;48.126;11.542;2023-12-07T01:56:50;17.17;;;7.80;;
73382;SDS011;61600;48.126;11.542;2023-12-07T01:59:17;19.48;;;8.65;;
73382;SDS011;61600;48.126;11.542;2023-12-07T02:01:43;18.02;;;8.30;;
73382;SDS011;61600;48.126;11.542;2023-12-07T02:04:10;20.08;;;8.82;;
73382;SDS011;61600;48.126;11.542;2023-12-07T02:06:36;19.00;;;7.53;;
73382;SDS011;61600;48.126;11.542;2023-12-07T02:09:01;16.52;;;7.85;;
73382;SDS011;61600;48.126;11.542;2023-12-07T02:11:27;16.23;;;7.28;;
73382;SDS011;61600;48.126;11.542;2023-12-07T02:13:53;16.58;;;7.68;;
73382;SDS011;61600;48.126;11.542;2023-12-07T02:24:27;15.43;;;7.05;;
73382;SDS011;61600;48.126;11.542;2023-12-07T02:26:58;16.13;;;7.53;;
73382;SDS011;61600;48.126;11.542;2023-12-07T02:29:24;19.00;;;7.68;;
73382;SDS011;61600;48.126;11.542;2023-12-07T02:31:49;17.08;;;7.85;;
73382;SDS011;61600;48.126;11.542;2023-12-07T02:34:15;19.15;;;8.60;;
73382;SDS011;61600;48.126;11.542;2023-12-07T02:36:42;17.08;;;7.70;;
73382;SDS011;61600;48.126;11.542;2023-12-07T02:41:37;15.38;;;7.78;;
73382;SDS011;61600;48.126;11.542;2023-12-07T02:44:05;16.17;;;7.00;;
73382;SDS011;61600;48.126;11.542;2023-12-07T02:46:31;20.88;;;7.55;;
73382;SDS011;61600;48.126;11.542;2023-12-07T02:48:57;18.83;;;7.97;;
73382;SDS011;61600;48.126;11.542;2023-12-07T02:51:23;18.10;;;8.27;;
73382;SDS011;61600;48.126;11.542;2023-12-07T02:53:49;19.08;;;8.77;;
73382;SDS011;61600;48.126;11.542;2023-12-07T02:56:15;19.05;;;8.27;;
73382;SDS011;61600;48.126;11.542;2023-12-07T02:58:40;18.65;;;8.32;;
73382;SDS011;61600;48.126;11.542;2023-12-07T03:01:07;14.30;;;7.53;;
73382;SDS011;61600;48.126;11.542;2023-12-07T03:03:33;13.18;;;6.57;;
73382;SDS011;61600;48.126;11.542;2023-12-07T03:05:58;18.40;;;7.85;;
73382;SDS011;61600;48.126;11.542;2023-12-07T03:08:24;20.92;;;8.20;;
73382;SDS011;61600;48.126;11.542;2023-12-07T03:10:49;16.85;;;7.35;;
73382;SDS011;61600;48.126;11.542;2023-12-07T03:13:15;21.67;;;8.57;;
73382;SDS011;61600;48.126;11.542;2023-12-07T03:15:40;19.05;;;8.40;;
73382;SDS011;61600;48.126;11.542;2023-12-07T03:18:06;17.20;;;7.60;;
73382;SDS011;61600;48.126;11.542;2023-12-07T03:20:32;17.95;;;8.20;;
73382;SDS011;61600;48.126;11.542;2023-12-07T03:22:59;15.88;;;6.72;;
73382;SDS011;61600;48.126;11.542;2023-12-07T03:25:24;17.58;;;7.20;;
73382;SDS011;61600;48.126;11.542;2023-12-07T03:27:50;17.15;;;7.40;;
73382;SDS011;61600;48.126;11.542;2023-12-07T03:30:15;15.32;;;6.88;;
73382;SDS011;61600;48.126;11.542;2023-12-07T03:32:41;18.10;;;7.65;;
73382;SDS011;61600;48.126;11.542;2023-12-07T03:35:07;12.30;;;6.40;;
73382;SDS011;61600;48.126;11.542;2023-12-07T03:37:32;17.02;;;7.90;;
73382;SDS011;61600;48.126;11.542;2023-12-07T03:39:58;14.82;;;6.97;;
73382;SDS011;61600;48.126;11.542;2023-12-07T03:42:23;18.23;;;6.82;;
73382;SDS011;61600;48.126;11.542;2023-12-07T03:44:49;12.00;;;5.68;;
73382;SDS011;61600;48.126;11.542;2023-12-07T03:47:14;15.05;;;6.47;;
73382;SDS011;61600;48.126;11.542;2023-12-07T03:49:40;13.27;;;6.32;;
73382;SDS011;61600;48.126;11.542;2023-12-07T03:52:07;14.57;;;7.15;;
73382;SDS011;61600;48.126;11.542;2023-12-07T03:54:32;13.30;;;6.30;;
73382;SDS011;61600;48.126;11.542;2023-12-07T03:56:58;11.85;;;5.18;;
73382;SDS011;61600;48.126;11.542;2023-12-07T03:59:23;16.83;;;7.07;;
73382;SDS011;61600;48.126;11.542;2023-12-07T04:01:49;15.52;;;6.55;;
73382;SDS011;61600;48.126;11.542;2023-12-07T04:04:15;15.43;;;6.57;;
73382;SDS011;61600;48.126;11.542;2023-12-07T04:06:41;13.88;;;7.05;;
73382;SDS011;61600;48.126;11.542;2023-12-07T04:09:07;11.82;;;6.03;;
73382;SDS011;61600;48.126;11.542;2023-12-07T04:11:34;15.02;;;6.47;;
73382;SDS011;61600;48.126;11.542;2023-12-07T04:14:00;15.70;;;7.05;;
73382;SDS011;61600;48.126;11.542;2023-12-07T04:16:25;14.02;;;5.88;;
73382;SDS011;61600;48.126;11.542;2023-12-07T04:18:51;13.48;;;6.00;;
73382;SDS011;61600;48.126;11.542;2023-12-07T04:21:16;15.00;;;5.85;;
73382;SDS011;61600;48.126;11.542;2023-12-07T04:23:42;13.30;;;6.30;;
73382;SDS011;61600;48.126;11.542;2023-12-07T04:26:08;12.07;;;6.55;;
73382;SDS011;61600;48.126;11.542;2023-12-07T04:28:33;14.40;;;6.18;;
73382;SDS011;61600;48.126;11.542;2023-12-07T04:30:59;14.23;;;7.00;;
73382;SDS011;61600;48.126;11.542;2023-12-07T04:33:24;12.25;;;5.63;;
73382;SDS011;61600;48.126;11.542;2023-12-07T04:35:50;11.52;;;5.82;;
73382;SDS011;61600;48.126;11.542;2023-12-07T04:38:15;14.35;;;6.47;;
73382;SDS011;61600;48.126;11.542;2023-12-07T04:40:41;14.20;;;5.82;;
73382;SDS011;61600;48.126;11.542;2023-12-07T04:43:07;14.10;;;6.35;;
73382;SDS011;61600;48.126;11.542;2023-12-07T04:45:32;9.95;;;4.72;;
73382;SDS011;61600;48.126;11.542;2023-12-07T04:47:58;12.00;;;5.47;;
73382;SDS011;61600;48.126;11.542;2023-12-07T04:50:26;12.90;;;6.07;;
73382;SDS011;61600;48.126;11.542;2023-12-07T04:52:51;14.82;;;6.28;;
73382;SDS011;61600;48.126;11.542;2023-12-07T04:55:17;11.18;;;5.18;;
73382;SDS011;61600;48.126;11.542;2023-12-07T04:57:42;13.20;;;6.07;;
73382;SDS011;61600;48.126;11.542;2023-12-07T05:00:08;14.90;;;7.28;;
73382;SDS011;61600;48.126;11.542;2023-12-07T05:02:38;14.38;;;5.72;;
73382;SDS011;61600;48.126;11.542;2023-12-07T05:05:04;14.13;;;6.35;;
73382;SDS011;61600;48.126;11.542;2023-12-07T05:07:30;12.50;;;5.72;;
73382;SDS011;61600;48.126;11.542;2023-12-07T05:09:56;14.68;;;5.15;;
73382;SDS011;61600;48.126;11.542;2023-12-07T05:12:21;13.48;;;5.97;;
73382;SDS011;61600;48.126;11.542;2023-12-07T05:14:47;13.35;;;4.95;;
73382;SDS011;61600;48.126;11.542;2023-12-07T05:17:14;11.73;;;5.15;;
73382;SDS011;61600;48.126;11.542;2023-12-07T05:19:40;16.60;;;6.00;;
73382;SDS011;61600;48.126;11.542;2023-12-07T05:22:06;11.82;;;4.50;;
73382;SDS011;61600;48.126;11.542;2023-12-07T05:24:31;11.15;;;4.90;;
73382;SDS011;61600;48.126;11.542;2023-12-07T05:26:59;12.60;;;5.80;;
73382;SDS011;61600;48.126;11.542;2023-12-07T05:29:26;9.82;;;4.22;;
73382;SDS011;61600;48.126;11.542;2023-12-07T05:31:51;11.93;;;4.88;;
73382;SDS011;61600;48.126;11.542;2023-12-07T05:34:18;11.45;;;5.20;;
73382;SDS011;61600;48.126;11.542;2023-12-07T05:36:45;12.63;;;4.88;;
73382;SDS011;61600;48.126;11.542;2023-12-07T05:39:11;11.35;;;4.80;;
73382;SDS011;61600;48.126;11.542;2023-12-07T05:41:38;12.43;;;4.85;;
73382;SDS011;61600;48.126;11.542;2023-12-07T05:44:04;12.88;;;5.18;;
73382;SDS011;61600;48.126;11.542;2023-12-07T05:46:30;10.23;;;5.22;;
73382;SDS011;61600;48.126;11.542;2023-12-07T05:48:55;11.07;;;5.35;;
73382;SDS011;61600;48.126;11.542;2023-12-07T05:51:22;11.20;;;5.03;;
73382;SDS011;61600;48.126;11.542;2023-12-07T05:53:49;10.25;;;5.15;;
73382;SDS011;61600;48.126;11.542;2023-12-07T05:56:18;12.43;;;5.00;;
73382;SDS011;61600;48.126;11.542;2023-12-07T05:58:45;12.55;;;5.50;;
73382;SDS011;61600;48.126;11.542;2023-12-07T06:01:12;10.40;;;5.10;;
73382;SDS011;61600;48.126;11.542;2023-12-07T06:03:37;12.65;;;5.45;;
73382;SDS011;61600;48.126;11.542;2023-12-07T06:06:03;11.90;;;5.85;;
73382;SDS011;61600;48.126;11.542;2023-12-07T06:08:29;10.52;;;4.93;;
73382;SDS011;61600;48.126;11.542;2023-12-07T06:10:54;11.05;;;5.10;;
73382;SDS011;61600;48.126;11.542;2023-12-07T06:13:20;11.35;;;5.05;;
73382;SDS011;61600;48.126;11.542;2023-12-07T06:15:46;11.27;;;5.72;;
73382;SDS011;61600;48.126;11.542;2023-12-07T06:18:11;13.52;;;6.25;;
73382;SDS011;61600;48.126;11.542;2023-12-07T06:20:37;13.00;;;6.00;;
73382;SDS011;61600;48.126;11.542;2023-12-07T06:23:05;13.10;;;6.40;;
73382;SDS011;61600;48.126;11.542;2023-12-07T06:25:32;13.00;;;5.50;;
73382;SDS011;61600;48.126;11.542;2023-12-07T06:27:57;13.70;;;5.85;;
73382;SDS011;61600;48.126;11.542;2023-12-07T06:30:23;12.20;;;6.10;;
73382;SDS011;61600;48.126;11.542;2023-12-07T06:32:51;11.98;;;6.25;;
73382;SDS011;61600;48.126;11.542;2023-12-07T06:35:16;14.82;;;5.80;;
73382;SDS011;61600;48.126;11.542;2023-12-07T06:37:42;14.63;;;6.28;;
73382;SDS011;61600;48.126;11.542;2023-12-07T06:40:11;16.92;;;6.55;;
73382;SDS011;61600;48.126;11.542;2023-12-07T06:42:37;11.93;;;5.03;;
73382;SDS011;61600;48.126;11.542;2023-12-07T06:45:03;12.30;;;6.18;;
73382;SDS011;61600;48.126;11.542;2023-12-07T06:47:31;11.65;;;5.47;;
73382;SDS011;61600;48.126;11.542;2023-12-07T06:49:57;14.25;;;5.82;;
73382;SDS011;61600;48.126;11.542;2023-12-07T06:52:22;15.32;;;5.63;;
73382;SDS011;61600;48.126;11.542;2023-12-07T06:54:48;14.77;;;5.60;;
73382;SDS011;61600;48.126;11.542;2023-12-07T06:57:13;14.63;;;5.60;;
73382;SDS011;61600;48.126;11.542;2023-12-07T06:59:39;11.95;;;5.80;;
73382;SDS011;61600;48.126;11.542;2023-12-07T07:02:06;11.60;;;5.65;;
73382;SDS011;61600;48.126;11.542;2023-12-07T07:04:32;16.90;;;6.88;;
73382;SDS011;61600;48.126;11.542;2023-12-07T07:06:58;14.02;;;5.75;;
73382;SDS011;61600;48.126;11.542;2023-12-07T07:09:23;11.52;;;5.28;;
73382;SDS011;61600;48.126;11.542;2023-12-07T07:11:50;14.10;;;5.90;;
73382;SDS011;61600;48.126;11.542;2023-12-07T07:14:16;11.32;;;5.32;;
73382;SDS011;61600;48.126;11.542;2023-12-07T07:16:43;15.05;;;5.18;;
73382;SDS011;61600;48.126;11.542;2023-12-07T07:19:10;11.43;;;5.40;;
73382;SDS011;61600;48.126;11.542;2023-12-07T07:21:36;12.90;;;6.13;;
73382;SDS011;61600;48.126;11.542;2023-12-07T07:24:02;11.93;;;5.30;;
73382;SDS011;61600;48.126;11.542;2023-12-07T07:26:27;15.40;;;5.28;;
73382;SDS011;61600;48.126;11.542;2023-12-07T07:28:53;12.50;;;5.63;;
73382;SDS011;61600;48.126;11.542;2023-12-07T07:31:19;12.50;;;5.50;;
73382;SDS011;61600;48.126;11.542;2023-12-07T07:33:45;11.90;;;5.57;;
73382;SDS011;61600;48.126;11.542;2023-12-07T07:36:14;12.18;;;5.40;;
73382;SDS011;61600;48.126;11.542;2023-12-07T07:38:40;12.88;;;6.18;;
73382;SDS011;61600;48.126;11.542;2023-12-07T07:41:07;10.68;;;5.18;;
73382;SDS011;61600;48.126;11.542;2023-12-07T07:43:33;12.57;;;5.75;;
73382;SDS011;61600;48.126;11.542;2023-12-07T07:46:03;12.85;;;5.85;;
73382;SDS011;61600;48.126;11.542;2023-12-07T07:48:29;8.80;;;4.80;;
73382;SDS011;61600;48.126;11.542;2023-12-07T07:50:55;11.15;;;5.93;;
73382;SDS011;61600;48.126;11.542;2023-12-07T07:53:22;10.73;;;5.00;;
73382;SDS011;61600;48.126;11.542;2023-12-07T07:55:49;16.58;;;6.47;;
73382;SDS011;61600;48.126;11.542;2023-12-07T07:58:14;11.35;;;5.22;;
73382;SDS011;61600;48.126;11.542;2023-12-07T08:00:40;11.77;;;5.63;;
73382;SDS011;61600;48.126;11.542;2023-12-07T08:03:06;13.13;;;5.68;;
73382;SDS011;61600;48.126;11.542;2023-12-07T08:05:32;12.20;;;4.88;;
73382;SDS011;61600;48.126;11.542;2023-12-07T08:07:58;14.23;;;4.93;;
73382;SDS011;61600;48.126;11.542;2023-12-07T08:10:24;10.98;;;5.90;;
73382;SDS011;61600;48.126;11.542;2023-12-07T08:12:50;16.88;;;5.57;;
73382;SDS011;61600;48.126;11.542;2023-12-07T08:15:16;12.10;;;4.93;;
73382;SDS011;61600;48.126;11.542;2023-12-07T08:17:43;11.27;;;5.88;;
73382;SDS011;61600;48.126;11.542;2023-12-07T08:20:09;15.18;;;5.47;;
73382;SDS011;61600;48.126;11.542;2023-12-07T08:22:36;14.02;;;6.05;;
73382;SDS011;61600;48.126;11.542;2023-12-07T08:25:06;9.05;;;5.25;;
73382;SDS011;61600;48.126;11.542;2023-12-07T08:27:35;11.02;;;4.97;;
73382;SDS011;61600;48.126;11.542;2023-12-07T08:30:02;8.77;;;4.60;;
73382;SDS011;61600;48.126;11.542;2023-12-07T08:32:28;15.18;;;5.40;;
73382;SDS011;61600;48.126;11.542;2023-12-07T08:34:54;10.93;;;5.68;;
73382;SDS011;61600;48.126;11.542;2023-12-07T08:37:20;12.32;;;5.80;;
73382;SDS011;61600;48.126;11.542;2023-12-07T08:39:46;11.32;;;5.55;;
73382;SDS011;61600;48.126;11.542;2023-12-07T08:42:12;12.35;;;5.22;;
73382;SDS011;61600;48.126;11.542;2023-12-07T08:44:38;11.63;;;5.85;;
73382;SDS011;61600;48.126;11.542;2023-12-07T08:47:04;10.75;;;5.45;;
73382;SDS011;61600;48.126;11.542;2023-12-07T08:49:30;15.85;;;5.13;;
73382;SDS011;61600;48.126;11.542;2023-12-07T08:51:56;10.75;;;5.10;;
73382;SDS011;61600;48.126;11.542;2023-12-07T08:54:23;11.60;;;5.30;;
73382;SDS011;61600;48.126;11.542;2023-12-07T08:56:49;14.65;;;5.57;;
73382;SDS011;61600;48.126;11.542;2023-12-07T08:59:15;11.90;;;6.13;;
73382;SDS011;61600;48.126;11.542;2023-12-07T09:01:41;11.07;;;5.97;;
73382;SDS011;61600;48.126;11.542;2023-12-07T09:04:07;10.07;;;4.80;;
73382;SDS011;61600;48.126;11.542;2023-12-07T09:06:33;10.27;;;5.25;;
73382;SDS011;61600;48.126;11.542;2023-12-07T09:08:59;9.70;;;5.03;;
73382;SDS011;61600;48.126;11.542;2023-12-07T09:11:27;12.13;;;5.07;;
73382;SDS011;61600;48.126;11.542;2023-12-07T09:13:54;8.82;;;4.53;;
73382;SDS011;61600;48.126;11.542;2023-12-07T09:16:20;9.35;;;4.72;;
73382;SDS011;61600;48.126;11.542;2023-12-07T09:18:46;10.00;;;3.97;;
73382;SDS011;61600;48.126;11.542;2023-12-07T09:21:12;11.57;;;5.43;;
73382;SDS011;61600;48.126;11.542;2023-12-07T09:23:40;8.23;;;3.78;;
73382;SDS011;61600;48.126;11.542;2023-12-07T09:26:05;10.30;;;4.47;;
73382;SDS011;61600;48.126;11.542;2023-12-07T09:28:32;9.10;;;3.83;;
73382;SDS011;61600;48.126;11.542;2023-12-07T09:31:00;6.90;;;3.80;;
73382;SDS011;61600;48.126;11.542;2023-12-07T09:33:26;7.18;;;3.78;;
73382;SDS011;61600;48.126;11.542;2023-12-07T09:35:52;7.00;;;3.30;;
73382;SDS011;61600;48.126;11.542;2023-12-07T09:38:18;7.43;;;3.30;;
73382;SDS011;61600;48.126;11.542;2023-12-07T09:40:45;5.55;;;2.75;;
73382;SDS011;61600;48.126;11.542;2023-12-07T09:43:13;5.95;;;3.15;;
73382;SDS011;61600;48.126;11.542;2023-12-07T09:45:38;5.90;;;2.97;;
73382;SDS011;61600;48.126;11.542;2023-12-07T09:48:04;5.15;;;2.20;;
73382;SDS011;61600;48.126;11.542;2023-12-07T09:50:30;5.25;;;2.45;;
73382;SDS011;61600;48.126;11.542;2023-12-07T09:52:57;5.03;;;2.05;;
73382;SDS011;61600;48.126;11.542;2023-12-07T09:55:43;4.78;;;2.10;;
73382;SDS011;61600;48.126;11.542;2023-12-07T09:58:12;5.45;;;2.35;;
73382;SDS011;61600;48.126;11.542;2023-12-07T10:00:37;4.88;;;2.13;;
73382;SDS011;61600;48.126;11.542;2023-12-07T10:03:04;10.35;;;3.88;;
73382;SDS011;61600;48.126;11.542;2023-12-07T10:05:54;5.20;;;2.40;;
73382;SDS011;61600;48.126;11.542;2023-12-07T10:08:41;4.85;;;1.90;;
73382;SDS011;61600;48.126;11.542;2023-12-07T10:11:10;4.85;;;1.65;;
73382;SDS011;61600;48.126;11.542;2023-12-07T10:13:39;3.72;;;1.58;;
73382;SDS011;61600;48.126;11.542;2023-12-07T10:16:13;4.63;;;2.30;;
73382;SDS011;61600;48.126;11.542;2023-12-07T10:18:44;9.35;;;2.42;;
73382;SDS011;61600;48.126;11.542;2023-12-07T10:21:10;4.35;;;2.20;;
73382;SDS011;61600;48.126;11.542;2023-12-07T10:23:36;5.85;;;2.63;;
73382;SDS011;61600;48.126;11.542;2023-12-07T10:26:04;5.10;;;2.60;;
73382;SDS011;61600;48.126;11.542;2023-12-07T10:30:56;4.78;;;2.20;;
73382;SDS011;61600;48.126;11.542;2023-12-07T10:33:22;6.85;;;2.88;;
73382;SDS011;61600;48.126;11.542;2023-12-07T10:35:48;5.53;;;2.80;;
73382;SDS011;61600;48.126;11.542;2023-12-07T10:38:14;3.63;;;2.30;;
73382;SDS011;61600;48.126;11.542;2023-12-07T10:40:39;5.90;;;2.40;;
73382;SDS011;61600;48.126;11.542;2023-12-07T10:43:07;6.70;;;2.92;;
73382;SDS011;61600;48.126;11.542;2023-12-07T10:45:33;7.40;;;2.25;;
73382;SDS011;61600;48.126;11.542;2023-12-07T10:48:09;5.45;;;2.47;;
73382;SDS011;61600;48.126;11.542;2023-12-07T10:50:40;3.08;;;1.85;;
73382;SDS011;61600;48.126;11.542;2023-12-07T10:53:10;4.18;;;2.08;;
73382;SDS011;61600;48.126;11.542;2023-12-07T10:55:56;6.43;;;2.30;;
73382;SDS011;61600;48.126;11.542;2023-12-07T10:58:25;4.13;;;2.15;;
73382;SDS011;61600;48.126;11.542;2023-12-07T11:00:52;3.50;;;1.70;;
73382;SDS011;61600;48.126;11.542;2023-12-07T11:03:19;5.20;;;2.80;;
73382;SDS011;61600;48.126;11.542;2023-12-07T11:05:46;5.40;;;2.25;;
73382;SDS011;61600;48.126;11.542;2023-12-07T11:13:40;3.63;;;2.10;;
73382;SDS011;61600;48.126;11.542;2023-12-07T11:16:16;4.03;;;1.92;;
73382;SDS011;61600;48.126;11.542;2023-12-07T11:18:41;4.95;;;2.55;;
73382;SDS011;61600;48.126;11.542;2023-12-07T11:21:07;4.93;;;2.75;;
73382;SDS011;61600;48.126;11.542;2023-12-07T11:23:34;8.25;;;2.67;;
73382;SDS011;61600;48.126;11.542;2023-12-07T11:25:59;3.53;;;2.03;;
73382;SDS011;61600;48.126;11.542;2023-12-07T11:28:35;4.47;;;2.03;;
73382;SDS011;61600;48.126;11.542;2023-12-07T11:31:05;4.68;;;2.03;;
73382;SDS011;61600;48.126;11.542;2023-12-07T11:33:33;5.22;;;2.45;;
73382;SDS011;61600;48.126;11.542;2023-12-07T11:38:27;3.47;;;1.55;;
73382;SDS011;61600;48.126;11.542;2023-12-07T11:40:54;3.08;;;1.83;;
73382;SDS011;61600;48.126;11.542;2023-12-07T11:43:36;2.72;;;1.48;;
73382;SDS011;61600;48.126;11.542;2023-12-07T11:46:11;4.47;;;1.70;;
73382;SDS011;61600;48.126;11.542;2023-12-07T11:48:39;3.22;;;1.42;;
73382;SDS011;61600;48.126;11.542;2023-12-07T11:51:10;2.60;;;1.60;;
73382;SDS011;61600;48.126;11.542;2023-12-07T11:53:37;2.80;;;1.58;;
73382;SDS011;61600;48.126;11.542;2023-12-07T11:56:04;3.20;;;1.58;;
73382;SDS011;61600;48.126;11.542;2023-12-07T11:58:35;3.60;;;2.05;;
73382;SDS011;61600;48.126;11.542;2023-12-07T12:01:02;3.75;;;1.92;;
73382;SDS011;61600;48.126;11.542;2023-12-07T12:03:31;7.18;;;2.30;;
73382;SDS011;61600;48.126;11.542;2023-12-07T12:05:59;9.13;;;2.28;;
73382;SDS011;61600;48.126;11.542;2023-12-07T12:08:27;4.72;;;1.65;;
73382;SDS011;61600;48.126;11.542;2023-12-07T12:10:53;6.07;;;2.30;;
73382;SDS011;61600;48.126;11.542;2023-12-07T12:13:30;4.05;;;2.10;;
73382;SDS011;61600;48.126;11.542;2023-12-07T12:15:59;4.53;;;2.50;;
73382;SDS011;61600;48.126;11.542;2023-12-07T12:18:26;6.57;;;2.92;;
73382;SDS011;61600;48.126;11.542;2023-12-07T12:20:53;4.50;;;2.20;;
73382;SDS011;61600;48.126;11.542;2023-12-07T12:23:19;4.53;;;2.55;;
73382;SDS011;61600;48.126;11.542;2023-12-07T12:25:45;4.00;;;2.20;;
73382;SDS011;61600;48.126;11.542;2023-12-07T12:28:14;5.10;;;2.28;;
73382;SDS011;61600;48.126;11.542;2023-12-07T12:30:41;5.13;;;2.35;;
73382;SDS011;61600;48.126;11.542;2023-12-07T12:33:07;5.38;;;2.25;;
73382;SDS011;61600;48.126;11.542;2023-12-07T12:35:33;4.68;;;2.50;;
73382;SDS011;61600;48.126;11.542;2023-12-07T12:37:58;5.22;;;1.65;;
73382;SDS011;61600;48.126;11.542;2023-12-07T12:40:27;8.27;;;1.98;;
73382;SDS011;61600;48.126;11.542;2023-12-07T12:42:55;6.07;;;2.40;;
73382;SDS011;61600;48.126;11.542;2023-12-07T12:45:21;6.10;;;2.70;;
73382;SDS011;61600;48.126;11.542;2023-12-07T12:47:47;5.50;;;2.70;;
73382;SDS011;61600;48.126;11.542;2023-12-07T12:53:04;4.18;;;1.88;;
73382;SDS011;61600;48.126;11.542;2023-12-07T12:55:35;4.53;;;2.13;;
73382;SDS011;61600;48.126;11.542;2023-12-07T12:58:03;3.28;;;2.05;;
73382;SDS011;61600;48.126;11.542;2023-12-07T13:00:30;5.07;;;1.92;;
73382;SDS011;61600;48.126;11.542;2023-12-07T13:03:00;3.70;;;2.17;;
73382;SDS011;61600;48.126;11.542;2023-12-07T13:05:31;4.85;;;2.42;;
73382;SDS011;61600;48.126;11.542;2023-12-07T13:07:59;4.68;;;2.20;;
73382;SDS011;61600;48.126;11.542;2023-12-07T13:10:26;4.50;;;2.35;;
73382;SDS011;61600;48.126;11.542;2023-12-07T13:12:52;5.18;;;2.03;;
73382;SDS011;61600;48.126;11.542;2023-12-07T13:15:17;5.05;;;2.20;;
73382;SDS011;61600;48.126;11.542;2023-12-07T13:17:43;4.10;;;2.25;;
73382;SDS011;61600;48.126;11.542;2023-12-07T13:20:10;4.57;;;2.22;;
73382;SDS011;61600;48.126;11.542;2023-12-07T13:22:37;5.10;;;2.20;;
73382;SDS011;61600;48.126;11.542;2023-12-07T13:25:04;4.93;;;2.40;;
73382;SDS011;61600;48.126;11.542;2023-12-07T13:27:32;20.65;;;7.75;;
73382;SDS011;61600;48.126;11.542;2023-12-07T13:32:23;7.78;;;2.75;;
73382;SDS011;61600;48.126;11.542;2023-12-07T13:34:49;5.20;;;2.40;;
73382;SDS011;61600;48.126;11.542;2023-12-07T13:37:15;5.10;;;2.50;;
73382;SDS011;61600;48.126;11.542;2023-12-07T13:39:41;4.53;;;2.25;;
73382;SDS011;61600;48.126;11.542;2023-12-07T13:42:08;4.60;;;1.80;;
73382;SDS011;61600;48.126;11.542;2023-12-07T13:44:36;5.25;;;2.42;;
73382;SDS011;61600;48.126;11.542;2023-12-07T13:47:02;4.60;;;2.63;;
73382;SDS011;61600;48.126;11.542;2023-12-07T13:49:29;5.65;;;2.60;;
73382;SDS011;61600;48.126;11.542;2023-12-07T13:51:55;6.07;;;2.60;;
73382;SDS011;61600;48.126;11.542;2023-12-07T13:54:20;3.78;;;2.10;;
73382;SDS011;61600;48.126;11.542;2023-12-07T13:56:47;5.22;;;2.58;;
73382;SDS011;61600;48.126;11.542;2023-12-07T13:59:14;5.70;;;2.20;;
73382;SDS011;61600;48.126;11.542;2023-12-07T14:01:40;4.72;;;2.10;;
73382;SDS011;61600;48.126;11.542;2023-12-07T14:04:06;6.63;;;3.15;;
73382;SDS011;61600;48.126;11.542;2023-12-07T14:06:33;6.30;;;2.05;;
73382;SDS011;61600;48.126;11.542;2023-12-07T14:09:00;5.10;;;2.40;;
73382;SDS011;61600;48.126;11.542;2023-12-07T14:11:26;5.43;;;2.53;;
73382;SDS011;61600;48.126;11.542;2023-12-07T14:13:52;4.22;;;2.25;;
73382;SDS011;61600;48.126;11.542;2023-12-07T14:16:20;3.60;;;1.98;;
73382;SDS011;61600;48.126;11.542;2023-12-07T14:18:46;6.88;;;2.70;;
73382;SDS011;61600;48.126;11.542;2023-12-07T14:21:13;4.47;;;2.17;;
73382;SDS011;61600;48.126;11.542;2023-12-07T14:23:44;4.38;;;2.50;;
73382;SDS011;61600;48.126;11.542;2023-12-07T14:26:09;5.45;;;2.15;;
73382;SDS011;61600;48.126;11.542;2023-12-07T14:28:35;5.85;;;2.60;;
73382;SDS011;61600;48.126;11.542;2023-12-07T14:31:02;4.65;;;2.60;;
73382;SDS011;61600;48.126;11.542;2023-12-07T14:33:29;6.60;;;2.88;;
73382;SDS011;61600;48.126;11.542;2023-12-07T14:35:55;5.68;;;3.20;;
73382;SDS011;61600;48.126;11.542;2023-12-07T14:38:20;6.57;;;2.97;;
73382;SDS011;61600;48.126;11.542;2023-12-07T14:40:46;5.50;;;2.58;;
73382;SDS011;61600;48.126;11.542;2023-12-07T14:43:12;5.05;;;2.70;;
73382;SDS011;61600;48.126;11.542;2023-12-07T14:45:38;7.18;;;2.78;;
73382;SDS011;61600;48.126;11.542;2023-12-07T14:48:04;6.15;;;3.08;;